Time;durP1;ratioP1;P1;durP2;ratioP2;P2;SDS_P1;SDS_P2;PMS_P1;PMS_P2;Temp;Humidity;BMP_temperature;BMP_pressure;BME280_temperature;BME280_humidity;BME280_pressure;Samples;Min_cycle;Max_cycle;Signal;HPM_P1;HPM_P2
2023/10/08 00:02:27;;;;;;;5.53;1.60;;;16.50;99.90;;;;;;5078976;28;20047;-90
2023/10/08 00:04:56;;;;;;;4.75;1.40;;;16.50;99.90;;;;;;5096209;28;20122;-89
2023/10/08 00:07:23;;;;;;;3.25;1.10;;;16.40;99.90;;;;;;5079043;28;20047;-90
2023/10/08 00:09:53;;;;;;;2.30;0.73;;;16.30;99.90;;;;;;5103805;28;20391;-89
2023/10/08 00:12:19;;;;;;;1.75;0.70;;;16.20;99.90;;;;;;5114063;28;20054;-89
2023/10/08 00:14:49;;;;;;;3.42;1.20;;;16.10;99.90;;;;;;5078941;28;20031;-90
2023/10/08 00:17:16;;;;;;;3.35;0.93;;;16.10;99.90;;;;;;5079075;28;20043;-90
2023/10/08 00:19:43;;;;;;;3.10;0.85;;;16.10;99.90;;;;;;5095691;28;20047;-90
2023/10/08 00:22:13;;;;;;;2.47;0.75;;;16.10;99.90;;;;;;5094390;28;20054;-89
2023/10/08 00:24:41;;;;;;;1.75;0.55;;;16.00;99.90;;;;;;5098356;28;20575;-89
2023/10/08 00:27:08;;;;;;;0.90;0.60;;;15.90;99.90;;;;;;5086853;28;20376;-90
2023/10/08 00:29:34;;;;;;;2.17;0.80;;;15.90;99.90;;;;;;5093998;28;20032;-90
2023/10/08 00:32:02;;;;;;;3.67;0.90;;;15.90;99.90;;;;;;5079144;28;20446;-90
2023/10/08 00:34:28;;;;;;;1.70;0.80;;;15.90;99.90;;;;;;5097030;28;20051;-89
2023/10/08 00:36:55;;;;;;;1.85;0.50;;;15.80;99.90;;;;;;5085948;28;20036;-89
2023/10/08 00:39:23;;;;;;;2.72;1.00;;;15.70;99.90;;;;;;5103925;28;20494;-89
2023/10/08 00:41:51;;;;;;;3.60;1.10;;;15.70;99.90;;;;;;5103748;28;20046;-89
2023/10/08 00:44:23;;;;;;;4.72;1.75;;;15.70;99.90;;;;;;5087359;28;20069;-88
2023/10/08 00:46:51;;;;;;;4.75;1.52;;;15.70;99.90;;;;;;5098752;28;20383;-89
2023/10/08 00:54:28;;;;;;;2.60;1.10;;;15.60;99.90;;;;;;5094302;28;20046;-89
2023/10/08 00:56:57;;;;;;;3.63;1.20;;;15.60;99.90;;;;;;5078185;28;20084;-89
2023/10/08 00:59:24;;;;;;;1.65;0.65;;;15.60;99.90;;;;;;5094718;28;20438;-89
2023/10/08 01:01:52;;;;;;;2.72;1.20;;;15.50;99.90;;;;;;5077268;28;20062;-89
2023/10/08 01:04:19;;;;;;;2.08;0.82;;;15.40;99.90;;;;;;5094784;28;20046;-89
2023/10/08 01:06:47;;;;;;;3.08;1.42;;;15.40;99.90;;;;;;5077365;28;20520;-90
2023/10/08 01:09:19;;;;;;;3.42;1.40;;;15.40;99.90;;;;;;5094157;28;20541;-89
2023/10/08 01:11:49;;;;;;;3.78;1.52;;;15.40;99.90;;;;;;5077197;28;20036;-90
2023/10/08 01:14:20;;;;;;;5.13;1.65;;;15.30;99.90;;;;;;5077931;28;20032;-89
2023/10/08 01:16:47;;;;;;;4.32;1.70;;;15.30;99.90;;;;;;5093845;28;20040;-90
2023/10/08 01:19:19;;;;;;;3.58;1.17;;;15.30;99.90;;;;;;5094509;28;20040;-90
2023/10/08 01:21:45;;;;;;;;;;;15.20;99.90;;;;;;5077656;28;20042;-89
2023/10/08 01:24:16;;;;;;;3.22;1.52;;;15.10;99.90;;;;;;5077580;28;19919;-89
2023/10/08 01:26:42;;;;;;;2.10;0.90;;;15.10;99.90;;;;;;5094778;28;20123;-89
2023/10/08 01:29:19;;;;;;;2.60;1.00;;;15.20;99.90;;;;;;5094105;28;20110;-90
2023/10/08 01:31:54;;;;;;;4.05;1.50;;;15.00;99.90;;;;;;5094360;28;20075;-90
2023/10/08 01:34:26;;;;;;;4.53;1.35;;;15.10;99.90;;;;;;5078051;28;20048;-88
2023/10/08 01:36:52;;;;;;;3.20;1.55;;;15.10;99.90;;;;;;5094422;28;20040;-89
2023/10/08 01:39:18;;;;;;;3.58;1.75;;;15.10;99.90;;;;;;5077405;28;20093;-89
2023/10/08 01:41:44;;;;;;;1.48;0.75;;;15.10;99.90;;;;;;5093865;28;20044;-89
2023/10/08 01:44:10;;;;;;;3.70;1.50;;;15.00;99.90;;;;;;5094618;28;20561;-89
2023/10/08 01:46:36;;;;;;;2.17;0.88;;;15.00;99.90;;;;;;5077654;28;20082;-89
2023/10/08 01:49:10;;;;;;;3.40;1.48;;;15.00;99.90;;;;;;5076765;28;20052;-89
2023/10/08 01:51:39;;;;;;;3.60;1.20;;;15.00;99.90;;;;;;5085467;28;20046;-89
2023/10/08 01:54:11;;;;;;;2.10;0.95;;;15.00;99.90;;;;;;5093007;28;20040;-89
2023/10/08 01:56:41;;;;;;;2.97;1.52;;;15.00;99.90;;;;;;5076034;28;20048;-89
2023/10/08 01:59:11;;;;;;;2.97;1.63;;;15.00;99.90;;;;;;5082181;28;20123;-89
2023/10/08 02:01:38;;;;;;;3.63;1.80;;;15.00;99.90;;;;;;5093008;28;20051;-89
2023/10/08 02:04:07;;;;;;;1.30;0.63;;;15.00;99.90;;;;;;5076777;28;20495;-89
2023/10/08 02:06:34;;;;;;;3.85;1.58;;;15.00;99.90;;;;;;5093618;28;20047;-89
2023/10/08 02:09:05;;;;;;;4.68;1.73;;;15.00;99.90;;;;;;5076489;28;20071;-89
2023/10/08 02:11:32;;;;;;;3.72;1.65;;;15.00;99.90;;;;;;5093513;28;20040;-88
2023/10/08 02:13:57;;;;;;;3.75;1.50;;;15.00;99.90;;;;;;5093991;28;20040;-89
2023/10/08 02:16:23;;;;;;;5.93;1.85;;;15.00;99.90;;;;;;5076748;28;20605;-89
2023/10/08 02:18:50;;;;;;;3.58;1.60;;;15.00;99.90;;;;;;5093796;28;20088;-89
2023/10/08 02:21:16;;;;;;;3.83;1.25;;;15.00;99.90;;;;;;5076484;28;20039;-89
2023/10/08 02:23:43;;;;;;;5.88;1.98;;;15.00;99.90;;;;;;5076775;28;20406;-89
2023/10/08 02:26:09;;;;;;;4.60;1.90;;;14.90;99.90;;;;;;5077550;28;20472;-89
2023/10/08 02:28:38;;;;;;;4.75;1.92;;;15.00;99.90;;;;;;5093012;28;20524;-89
2023/10/08 02:31:04;;;;;;;1.75;0.80;;;15.00;99.90;;;;;;5093418;28;20042;-89
2023/10/08 02:33:30;;;;;;;3.97;1.80;;;14.90;99.90;;;;;;5093494;28;20036;-89
2023/10/08 02:35:56;;;;;;;3.28;1.48;;;14.90;99.90;;;;;;5093992;28;20057;-89
2023/10/08 02:38:22;;;;;;;4.47;1.10;;;14.90;99.90;;;;;;5076642;28;20038;-89
2023/10/08 02:40:48;;;;;;;2.80;0.95;;;14.80;99.90;;;;;;5076633;28;20038;-89
2023/10/08 02:43:15;;;;;;;4.40;1.70;;;14.80;99.90;;;;;;5076012;28;20118;-89
2023/10/08 02:45:41;;;;;;;5.30;1.90;;;14.80;99.90;;;;;;5093931;28;20498;-89
2023/10/08 02:48:13;;;;;;;3.00;1.15;;;14.90;99.90;;;;;;5076758;28;20521;-89
2023/10/08 02:50:42;;;;;;;6.15;1.90;;;14.80;99.90;;;;;;5075936;28;20031;-89
2023/10/08 02:53:10;;;;;;;5.18;2.00;;;14.80;99.90;;;;;;5076541;28;20093;-89
2023/10/08 02:55:46;;;;;;;6.28;1.13;;;14.80;99.90;;;;;;5076928;28;20099;-89
2023/10/08 02:58:15;;;;;;;1.75;0.90;;;14.80;99.90;;;;;;5076537;28;20067;-89
2023/10/08 03:00:48;;;;;;;4.15;1.80;;;14.70;99.90;;;;;;5077285;28;20044;-89
2023/10/08 03:03:24;;;;;;;3.33;0.90;;;14.70;99.90;;;;;;5099880;28;20082;-89
2023/10/08 03:05:52;;;;;;;5.05;2.17;;;14.70;99.90;;;;;;5093395;28;20035;-89
2023/10/08 03:08:20;;;;;;;5.80;0.90;;;14.70;99.90;;;;;;5092511;28;20043;-89
2023/10/08 03:10:48;;;;;;;5.50;2.10;;;14.70;99.90;;;;;;5092963;28;20426;-89
2023/10/08 03:13:16;;;;;;;3.75;0.90;;;14.70;99.90;;;;;;5076373;28;20032;-89
2023/10/08 03:15:57;;;;;;;3.63;1.08;;;14.70;99.90;;;;;;5076781;28;20520;-89
2023/10/08 03:18:24;;;;;;;6.55;2.20;;;14.60;99.90;;;;;;5078447;28;20035;-89
2023/10/08 03:20:50;;;;;;;4.25;1.98;;;14.70;99.90;;;;;;5080001;28;20444;-89
2023/10/08 03:23:33;;;;;;;2.50;1.10;;;14.70;99.90;;;;;;5080073;28;20047;-89
2023/10/08 03:26:02;;;;;;;2.72;1.02;;;14.60;99.90;;;;;;5080297;28;20037;-89
2023/10/08 03:28:29;;;;;;;3.15;1.30;;;14.50;99.90;;;;;;5079954;28;20062;-89
2023/10/08 03:31:14;;;;;;;6.15;2.33;;;14.50;99.90;;;;;;5078984;28;20039;-89
2023/10/08 03:33:40;;;;;;;5.80;2.47;;;14.60;99.90;;;;;;5080009;28;20039;-89
2023/10/08 03:36:22;;;;;;;4.82;2.25;;;14.60;99.90;;;;;;5088341;28;20039;-89
2023/10/08 03:38:51;;;;;;;5.45;2.05;;;14.70;99.90;;;;;;5079644;28;20039;-89
2023/10/08 03:41:18;;;;;;;2.78;0.98;;;14.70;99.90;;;;;;5096924;28;20120;-89
2023/10/08 03:43:53;;;;;;;3.83;0.98;;;14.60;99.90;;;;;;5079264;28;20043;-89
2023/10/08 03:46:22;;;;;;;3.50;1.13;;;14.50;99.90;;;;;;5080130;28;20432;-90
2023/10/08 03:48:50;;;;;;;5.68;2.28;;;14.40;99.90;;;;;;5096077;28;20079;-89
2023/10/08 03:51:20;;;;;;;5.15;1.02;;;14.50;99.90;;;;;;5095735;28;20122;-89
2023/10/08 03:53:58;;;;;;;3.45;1.02;;;14.50;99.90;;;;;;5096406;28;20118;-89
2023/10/08 03:56:31;;;;;;;5.78;1.95;;;14.40;99.90;;;;;;5079641;28;20440;-89
2023/10/08 03:59:03;;;;;;;3.08;1.05;;;14.50;99.90;;;;;;5079400;28;20062;-89
2023/10/08 04:01:32;;;;;;;5.28;1.92;;;14.40;99.90;;;;;;5096627;28;20043;-89
2023/10/08 04:03:59;;;;;;;6.40;1.75;;;14.50;99.90;;;;;;5094849;28;20040;-89
2023/10/08 04:06:38;;;;;;;4.20;1.00;;;14.50;99.90;;;;;;5079855;28;20035;-89
2023/10/08 04:11:35;;;;;;;7.60;2.80;;;14.40;99.90;;;;;;5096366;28;20709;-89
2023/10/08 04:14:03;;;;;;;2.55;1.27;;;14.40;99.90;;;;;;5079127;28;20036;-89
2023/10/08 04:16:30;;;;;;;5.18;2.17;;;14.40;99.90;;;;;;5096141;28;20042;-89
2023/10/08 04:18:56;;;;;;;2.97;1.17;;;14.40;99.90;;;;;;5078733;28;20047;-89
2023/10/08 04:21:27;;;;;;;3.75;1.42;;;14.40;99.90;;;;;;5078828;28;20097;-89
2023/10/08 04:23:53;;;;;;;3.55;1.30;;;14.40;99.90;;;;;;5095068;28;20506;-89
2023/10/08 04:26:23;;;;;;;5.25;2.00;;;14.30;99.90;;;;;;5078723;28;20122;-88
2023/10/08 04:29:02;;;;;;;6.10;1.55;;;14.40;99.90;;;;;;5078028;28;20040;-89
2023/10/08 04:31:43;;;;;;;4.50;1.17;;;14.30;99.90;;;;;;5103636;28;20460;-89
2023/10/08 04:34:15;;;;;;;5.82;1.90;;;14.30;99.90;;;;;;5071129;28;20088;-89
2023/10/08 04:36:53;;;;;;;4.35;1.30;;;14.30;99.90;;;;;;5095844;28;20128;-89
2023/10/08 04:39:32;;;;;;;5.55;1.20;;;14.30;99.90;;;;;;5078620;28;20043;-89
2023/10/08 04:42:05;;;;;;;5.82;2.20;;;14.20;99.90;;;;;;5095275;28;20035;-89
2023/10/08 04:44:31;;;;;;;4.80;2.05;;;14.30;99.90;;;;;;5095251;28;20047;-89
2023/10/08 04:47:04;;;;;;;4.50;2.15;;;14.40;99.90;;;;;;5078292;28;20084;-89
2023/10/08 04:49:32;;;;;;;5.78;2.65;;;14.40;99.90;;;;;;5095159;28;20050;-89
2023/10/08 04:52:13;;;;;;;3.55;1.30;;;14.40;99.90;;;;;;5077668;28;20514;-90
2023/10/08 04:54:51;;;;;;;5.47;2.30;;;14.30;99.90;;;;;;5095433;28;20040;-90
2023/10/08 04:57:18;;;;;;;4.22;1.50;;;14.30;99.90;;;;;;5095601;28;20035;-90
2023/10/08 04:59:44;;;;;;;4.93;1.38;;;14.30;99.90;;;;;;5094959;28;20051;-90
2023/10/08 05:04:56;;;;;;;7.55;1.70;;;14.30;99.90;;;;;;5094950;28;20047;-89
2023/10/08 05:15:37;;;;;;;6.65;2.05;;;14.20;99.90;;;;;;5094823;28;20503;-88
2023/10/08 05:26:08;;;;;;;4.60;1.40;;;14.20;99.90;;;;;;5094548;28;20043;-87
2023/10/08 05:34:22;;;;;;;8.15;1.77;;;14.20;99.90;;;;;;5094413;28;20068;-87
2023/10/08 05:37:14;;;;;;;7.65;1.98;;;14.20;99.90;;;;;;5078174;28;20051;-88
2023/10/08 05:39:40;;;;;;;5.28;1.45;;;14.20;99.90;;;;;;5094085;28;20044;-88
2023/10/08 05:42:13;;;;;;;4.43;1.45;;;14.20;99.90;;;;;;5077013;28;20042;-86
2023/10/08 05:45:06;;;;;;;3.28;0.95;;;14.20;99.90;;;;;;5077549;28;20097;-88
2023/10/08 05:55:26;;;;;;;7.10;1.80;;;14.10;99.90;;;;;;5094704;28;20047;-87
2023/10/08 06:01:01;;;;;;;8.15;2.00;;;14.10;99.90;;;;;;5103001;28;20491;-88
2023/10/08 06:03:36;;;;;;;;;;;14.20;99.90;;;;;;5077668;27;20039;-88
2023/10/08 06:09:35;;;;;;;4.95;0.90;;;14.10;99.90;;;;;;5094291;28;20051;-88
2023/10/08 06:11:41;;;;;;;3.10;0.88;;;14.10;99.90;;;;;;5083275;28;20044;-88
2023/10/08 06:17:13;;;;;;;12.73;1.27;;;14.10;99.90;;;;;;5093915;28;20051;-88
2023/10/08 06:19:43;;;;;;;7.60;1.60;;;14.10;99.90;;;;;;5076974;28;20486;-88
2023/10/08 06:22:08;;;;;;;1.92;0.80;;;14.10;99.90;;;;;;5094090;28;20546;-88
2023/10/08 06:24:38;;;;;;;7.68;1.88;;;14.10;99.90;;;;;;5094201;28;20172;-88
2023/10/08 06:27:04;;;;;;;8.68;1.85;;;14.10;99.90;;;;;;5094886;28;20078;-88
2023/10/08 06:29:31;;;;;;;6.82;1.90;;;14.20;99.90;;;;;;5077719;28;20125;-89
2023/10/08 06:32:01;;;;;;;8.00;1.90;;;14.20;99.90;;;;;;5076907;28;20505;-89
2023/10/08 06:34:28;;;;;;;4.93;1.08;;;14.20;99.90;;;;;;5102252;28;20044;-89
2023/10/08 06:36:56;;;;;;;7.03;1.67;;;14.10;99.90;;;;;;5077491;28;20035;-89
2023/10/08 06:39:33;;;;;;;1.90;0.50;;;14.20;99.90;;;;;;5076915;28;20043;-89
2023/10/08 06:41:59;;;;;;;5.20;1.30;;;14.20;99.90;;;;;;5093861;28;20040;-89
2023/10/08 06:44:26;;;;;;;8.90;1.83;;;14.20;99.90;;;;;;5093879;28;20486;-89
2023/10/08 06:46:54;;;;;;;9.57;1.80;;;14.20;99.90;;;;;;5093769;28;20722;-89
2023/10/08 06:49:23;;;;;;;4.72;0.85;;;14.30;99.90;;;;;;5076894;28;20079;-89
2023/10/08 06:51:50;;;;;;;5.18;0.90;;;14.30;99.90;;;;;;5078048;28;20118;-88
2023/10/08 06:54:17;;;;;;;7.40;1.60;;;14.20;99.90;;;;;;5080742;28;20093;-87
2023/10/08 06:56:48;;;;;;;7.95;2.00;;;14.30;99.90;;;;;;5111245;28;20027;-89
2023/10/08 06:59:17;;;;;;;7.43;2.03;;;14.30;99.90;;;;;;5089274;28;20548;-89
2023/10/08 07:01:45;;;;;;;3.63;1.00;;;14.40;99.90;;;;;;5102935;28;20048;-88
2023/10/08 07:04:12;;;;;;;3.45;1.00;;;14.30;99.90;;;;;;5099122;28;20048;-88
2023/10/08 07:06:42;;;;;;;7.57;1.80;;;14.30;99.90;;;;;;5099173;28;20525;-88
2023/10/08 07:09:22;;;;;;;9.88;2.05;;;14.40;99.90;;;;;;5070568;28;20047;-88
2023/10/08 07:11:57;;;;;;;8.82;1.88;;;14.40;99.90;;;;;;5078600;28;20036;-88
2023/10/08 07:14:27;;;;;;;10.13;1.90;;;14.40;99.90;;;;;;5106297;28;20032;-89
2023/10/08 07:17:00;;;;;;;7.82;1.83;;;14.40;99.90;;;;;;5106549;28;20039;-88
2023/10/08 07:19:37;;;;;;;9.70;1.63;;;14.40;99.90;;;;;;5100276;28;20039;-88
2023/10/08 07:22:17;;;;;;;8.48;1.90;;;14.50;99.90;;;;;;5083480;27;20042;-88
2023/10/08 07:24:45;;;;;;;7.43;1.05;;;14.50;99.90;;;;;;5100179;28;20039;-88
2023/10/08 07:27:11;;;;;;;3.20;0.98;;;14.40;99.90;;;;;;5081516;28;20039;-89
2023/10/08 07:29:37;;;;;;;5.53;0.73;;;14.40;99.90;;;;;;5101111;28;20059;-89
2023/10/08 07:32:12;;;;;;;8.38;2.00;;;14.40;99.90;;;;;;5079477;28;20032;-88
2023/10/08 07:34:44;;;;;;;10.38;1.83;;;14.40;99.90;;;;;;5079840;28;20383;-89
2023/10/08 07:37:11;;;;;;;2.88;0.75;;;14.50;99.90;;;;;;5096444;28;20043;-89
2023/10/08 07:39:45;;;;;;;8.27;1.80;;;14.40;99.90;;;;;;5088167;28;20044;-89
2023/10/08 07:42:10;;;;;;;5.40;0.93;;;14.50;99.90;;;;;;5081061;28;20092;-89
2023/10/08 07:44:38;;;;;;;4.97;0.85;;;14.50;99.90;;;;;;5082572;27;20490;-88
2023/10/08 07:47:05;;;;;;;8.65;2.15;;;14.50;99.90;;;;;;5089397;27;20035;-88
2023/10/08 07:49:31;;;;;;;4.05;0.73;;;14.60;99.90;;;;;;5090992;27;20647;-88
2023/10/08 07:52:01;;;;;;;9.68;2.20;;;14.60;99.90;;;;;;5081301;28;20031;-89
2023/10/08 07:54:27;;;;;;;7.65;1.98;;;14.60;99.90;;;;;;5079832;28;20035;-89
2023/10/08 07:57:08;;;;;;;7.60;1.70;;;14.70;99.90;;;;;;5079710;28;20537;-89
2023/10/08 07:59:38;;;;;;;8.45;1.55;;;14.80;99.90;;;;;;5084224;28;20122;-89
2023/10/08 08:02:09;;;;;;;11.93;2.25;;;14.70;99.90;;;;;;5079394;28;20040;-89
2023/10/08 08:04:40;;;;;;;8.05;1.67;;;14.80;99.90;;;;;;5078745;28;20046;-88
2023/10/08 08:07:15;;;;;;;9.82;2.30;;;14.80;99.90;;;;;;5071706;28;20193;-88
2023/10/08 08:09:48;;;;;;;6.43;1.25;;;14.90;99.90;;;;;;5095926;28;20039;-89
2023/10/08 08:12:13;;;;;;;8.60;2.10;;;14.90;99.90;;;;;;5079490;28;20036;-89
2023/10/08 08:14:41;;;;;;;10.10;2.10;;;14.90;99.90;;;;;;5079164;28;20043;-89
2023/10/08 08:17:13;;;;;;;6.25;1.20;;;15.00;99.90;;;;;;5096591;28;20037;-89
2023/10/08 08:19:50;;;;;;;3.85;0.90;;;14.90;99.90;;;;;;5084314;28;20380;-89
2023/10/08 08:22:30;;;;;;;9.30;2.13;;;14.90;99.90;;;;;;5089169;28;20047;-88
2023/10/08 08:25:05;;;;;;;11.85;2.47;;;15.00;99.90;;;;;;5095544;28;20050;-88
2023/10/08 08:27:34;;;;;;;4.45;1.00;;;15.10;99.90;;;;;;5079495;28;20035;-89
2023/10/08 08:30:10;;;;;;;12.38;1.85;;;15.10;99.90;;;;;;5078989;28;20105;-89
2023/10/08 08:32:39;;;;;;;9.63;1.98;;;15.10;99.90;;;;;;5104451;28;20035;-88
2023/10/08 08:35:07;;;;;;;8.88;1.83;;;15.20;99.90;;;;;;5078864;28;20043;-89
2023/10/08 08:37:35;;;;;;;9.50;1.90;;;15.30;99.90;;;;;;5079146;28;20043;-90
2023/10/08 08:40:08;;;;;;;11.52;2.15;;;15.30;99.90;;;;;;5079102;27;20150;-88
2023/10/08 08:42:37;;;;;;;12.43;2.45;;;15.40;99.90;;;;;;5106575;27;20168;-89
2023/10/08 08:45:09;;;;;;;10.35;2.20;;;15.40;99.90;;;;;;5085434;27;20032;-89
2023/10/08 08:47:40;;;;;;;4.07;0.90;;;15.40;99.90;;;;;;5089797;27;20034;-90
2023/10/08 08:50:10;;;;;;;4.43;0.97;;;15.40;99.90;;;;;;5082794;28;20040;-89
2023/10/08 08:52:37;;;;;;;9.55;2.70;;;15.30;99.90;;;;;;5103778;27;20118;-89
2023/10/08 08:55:09;;;;;;;6.13;1.52;;;15.40;99.90;;;;;;5102127;27;20036;-89
2023/10/08 08:57:39;;;;;;;7.72;1.73;;;15.40;99.90;;;;;;5103396;28;20085;-89
2023/10/08 09:00:10;;;;;;;6.05;1.48;;;15.40;99.90;;;;;;5085335;27;20487;-89
2023/10/08 09:02:37;;;;;;;8.80;1.50;;;15.50;99.90;;;;;;5069472;27;20047;-89
2023/10/08 09:05:13;;;;;;;11.82;3.40;;;15.60;99.90;;;;;;5084673;27;20038;-89
2023/10/08 09:08:02;;;;;;;11.73;2.50;;;15.60;99.90;;;;;;5102281;27;20116;-90
2023/10/08 09:10:29;;;;;;;11.23;2.53;;;15.70;99.90;;;;;;5085768;27;20039;-89
2023/10/08 09:12:59;;;;;;;10.20;2.10;;;15.80;99.90;;;;;;5084530;28;20035;-89
2023/10/08 09:15:28;;;;;;;4.72;1.33;;;15.80;99.90;;;;;;5082623;27;20084;-89
2023/10/08 09:17:55;;;;;;;6.63;1.80;;;15.80;99.90;;;;;;5101531;27;20186;-90
2023/10/08 09:20:21;;;;;;;16.17;3.70;;;15.80;99.90;;;;;;5085687;27;20088;-90
2023/10/08 09:23:07;;;;;;;10.23;1.80;;;15.80;99.90;;;;;;5083506;28;20032;-89
2023/10/08 09:25:33;;;;;;;10.35;2.33;;;15.90;99.90;;;;;;5077504;28;20494;-89
2023/10/08 09:27:59;;;;;;;10.50;1.27;;;15.90;99.90;;;;;;5094831;28;20039;-90
2023/10/08 09:30:25;;;;;;;8.80;2.10;;;15.90;99.90;;;;;;5085908;28;20426;-90
2023/10/08 09:32:51;;;;;;;15.80;2.63;;;16.00;99.90;;;;;;5086166;28;20043;-89
2023/10/08 09:35:18;;;;;;;7.65;2.25;;;16.20;99.90;;;;;;5094957;28;20040;-90
2023/10/08 09:37:44;;;;;;;8.23;2.03;;;16.20;99.90;;;;;;5100088;28;20452;-90
2023/10/08 09:40:11;;;;;;;9.13;2.00;;;16.30;99.90;;;;;;5112886;28;20495;-90
2023/10/08 09:42:39;;;;;;;11.70;2.40;;;16.40;99.90;;;;;;5094512;28;20035;-90
2023/10/08 09:45:08;;;;;;;10.48;2.47;;;16.60;99.90;;;;;;5094525;28;20135;-90
2023/10/08 09:47:38;;;;;;;10.10;1.95;;;16.60;99.90;;;;;;5098322;28;20075;-90
2023/10/08 09:50:07;;;;;;;16.50;2.50;;;16.70;99.90;;;;;;5102666;28;20054;-90
2023/10/08 09:53:06;;;;;;;7.80;2.00;;;16.70;99.90;;;;;;5076767;28;20082;-90
2023/10/08 09:55:32;;;;;;;7.85;1.20;;;16.80;99.90;;;;;;5085623;28;20444;-90
2023/10/08 09:57:58;;;;;;;10.45;2.22;;;16.70;99.90;;;;;;5076718;28;20036;-90
2023/10/08 10:00:30;;;;;;;9.80;2.10;;;16.80;99.90;;;;;;5094024;28;20470;-90
2023/10/08 10:03:01;;;;;;;6.50;1.15;;;16.80;99.90;;;;;;5085554;28;20485;-90
2023/10/08 10:05:36;;;;;;;10.57;1.98;;;16.90;99.90;;;;;;5076819;28;20051;-90
2023/10/08 10:08:05;;;;;;;13.38;2.20;;;16.90;99.90;;;;;;5076937;28;20084;-90
2023/10/08 10:10:37;;;;;;;11.52;2.38;;;17.00;99.90;;;;;;5077219;28;20078;-90
2023/10/08 10:13:04;;;;;;;14.75;3.28;;;17.10;99.90;;;;;;5094077;28;20096;-90
2023/10/08 10:15:34;;;;;;;10.45;2.58;;;17.20;99.90;;;;;;5076412;28;20410;-90
2023/10/08 10:18:28;;;;;;;12.68;2.35;;;17.30;99.90;;;;;;5093814;28;20040;-90
2023/10/08 10:21:02;;;;;;;10.38;2.47;;;17.40;99.90;;;;;;5093843;28;20119;-89
2023/10/08 10:23:42;;;;;;;10.63;2.47;;;17.50;99.90;;;;;;5076312;28;20470;-90
2023/10/08 10:26:30;;;;;;;13.93;3.95;;;17.40;99.90;;;;;;5068049;28;20118;-90
2023/10/08 10:29:14;;;;;;;5.32;1.33;;;17.50;99.90;;;;;;5100920;28;20607;-91
2023/10/08 10:31:46;;;;;;;9.05;1.90;;;17.50;99.90;;;;;;5093792;28;20040;-89
2023/10/08 10:34:15;;;;;;;8.95;2.10;;;17.60;99.90;;;;;;5093984;28;20089;-89
2023/10/08 10:36:42;;;;;;;11.30;2.17;;;17.60;99.90;;;;;;5102411;28;20079;-89
2023/10/08 10:39:26;;;;;;;8.93;2.05;;;17.70;99.90;;;;;;5114550;28;20050;-90
2023/10/08 10:42:05;;;;;;;10.70;2.30;;;17.70;99.90;;;;;;5095931;28;20043;-89
2023/10/08 10:44:33;;;;;;;9.20;1.30;;;17.70;99.90;;;;;;5076597;28;20039;-90
2023/10/08 10:47:42;;;;;;;10.38;2.15;;;17.70;99.90;;;;;;5076764;28;20086;-90
2023/10/08 10:52:31;;;;;;;9.32;2.38;;;17.70;99.90;;;;;;5100659;28;20527;-89
2023/10/08 10:58:11;;;;;;;7.72;2.05;;;17.80;98.80;;;;;;5092808;28;20041;-89
2023/10/08 11:03:09;;;;;;;11.68;2.60;;;17.80;98.00;;;;;;5105306;28;20062;-90
2023/10/08 11:05:37;;;;;;;8.27;1.83;;;17.90;99.00;;;;;;5085089;28;20104;-90
2023/10/08 11:08:06;;;;;;;12.25;3.10;;;18.00;99.90;;;;;;5076001;28;20078;-89
2023/10/08 11:10:33;;;;;;;9.48;2.10;;;18.10;99.90;;;;;;5101585;28;20449;-89
2023/10/08 11:13:01;;;;;;;12.35;2.60;;;18.20;99.10;;;;;;5096304;28;20032;-90
2023/10/08 11:15:37;;;;;;;10.75;2.10;;;18.40;99.70;;;;;;5085039;28;20047;-90
2023/10/08 11:18:10;;;;;;;12.10;2.83;;;18.50;96.40;;;;;;5079315;28;20051;-89
2023/10/08 11:20:39;;;;;;;9.93;2.05;;;18.50;92.90;;;;;;5086465;28;20418;-89
2023/10/08 11:23:18;;;;;;;10.82;2.15;;;18.40;94.10;;;;;;5079249;28;20032;-89
2023/10/08 11:26:02;;;;;;;10.25;2.60;;;18.40;95.80;;;;;;5096068;28;20039;-89
2023/10/08 11:28:28;;;;;;;9.10;2.40;;;18.40;96.40;;;;;;5084667;28;20055;-89
2023/10/08 11:30:54;;;;;;;12.30;1.90;;;18.40;96.80;;;;;;5099653;28;20040;-90
2023/10/08 11:33:20;;;;;;;10.45;2.55;;;18.40;97.50;;;;;;5093612;28;20051;-90
2023/10/08 11:36:01;;;;;;;15.50;2.40;;;18.50;96.50;;;;;;5093152;28;20522;-90
2023/10/08 11:38:27;;;;;;;12.63;2.55;;;18.60;99.10;;;;;;5077276;28;20047;-90
2023/10/08 11:40:56;;;;;;;9.00;1.92;;;18.70;97.10;;;;;;5096956;28;20087;-90
2023/10/08 11:43:24;;;;;;;8.93;2.10;;;18.80;93.50;;;;;;5097272;28;20112;-90
2023/10/08 11:45:51;;;;;;;10.68;3.40;;;18.90;91.50;;;;;;5079878;28;20042;-89
2023/10/08 11:48:25;;;;;;;13.27;2.78;;;18.90;91.80;;;;;;5080006;28;20066;-90
2023/10/08 11:50:51;;;;;;;10.00;2.13;;;19.00;90.70;;;;;;5079603;28;20148;-90
2023/10/08 11:53:19;;;;;;;9.18;1.83;;;19.00;88.70;;;;;;5086890;28;20472;-90
2023/10/08 11:55:47;;;;;;;9.48;1.88;;;19.00;88.90;;;;;;5097062;28;20043;-90
2023/10/08 11:58:17;;;;;;;10.77;2.20;;;19.10;92.20;;;;;;5080759;28;20031;-90
2023/10/08 12:00:44;;;;;;;9.68;2.22;;;19.20;92.30;;;;;;5083138;28;20040;-90
2023/10/08 12:03:23;;;;;;;11.40;2.80;;;19.40;91.30;;;;;;5080081;28;20043;-90
2023/10/08 12:05:58;;;;;;;11.13;2.20;;;19.60;90.20;;;;;;5087462;28;20113;-90
2023/10/08 12:08:27;;;;;;;8.43;1.90;;;19.70;87.50;;;;;;5082299;28;20043;-90
2023/10/08 12:10:54;;;;;;;9.98;2.22;;;19.70;89.00;;;;;;5098110;28;20229;-90
2023/10/08 12:13:28;;;;;;;12.07;2.47;;;19.80;88.60;;;;;;5096427;28;20039;-90
2023/10/08 12:16:12;;;;;;;10.98;2.20;;;19.80;83.80;;;;;;5079475;28;20491;-90
2023/10/08 12:18:42;;;;;;;8.75;2.00;;;19.90;82.80;;;;;;5104735;28;20036;-91
2023/10/08 12:21:14;;;;;;;10.65;2.22;;;19.90;82.50;;;;;;5096308;28;20050;-91
2023/10/08 12:23:40;;;;;;;8.90;1.92;;;19.90;82.70;;;;;;5096431;28;20035;-91
2023/10/08 12:26:09;;;;;;;8.95;2.20;;;19.90;80.30;;;;;;5078839;28;20039;-91
2023/10/08 12:28:36;;;;;;;9.93;2.45;;;19.80;80.30;;;;;;5082944;28;20390;-90
2023/10/08 12:31:03;;;;;;;10.48;2.00;;;19.80;82.40;;;;;;5096302;28;20047;-90
2023/10/08 12:33:31;;;;;;;9.77;1.92;;;19.90;82.30;;;;;;5081804;28;20062;-90
2023/10/08 12:35:57;;;;;;;9.25;1.90;;;20.00;81.30;;;;;;5079853;28;20035;-91
2023/10/08 12:38:23;;;;;;;8.20;2.05;;;20.00;79.50;;;;;;5078696;28;20036;-90
2023/10/08 12:40:55;;;;;;;10.45;2.05;;;20.10;79.10;;;;;;5095928;28;20040;-89
2023/10/08 12:43:22;;;;;;;9.25;1.80;;;20.10;78.40;;;;;;5087465;28;20148;-89
2023/10/08 12:45:54;;;;;;;10.02;1.77;;;20.20;78.60;;;;;;5078839;28;20039;-90
2023/10/08 12:48:26;;;;;;;11.38;2.38;;;20.40;78.80;;;;;;5097746;28;20120;-90
2023/10/08 12:50:58;;;;;;;9.18;1.90;;;20.50;77.20;;;;;;5086317;28;20063;-89
2023/10/08 12:53:33;;;;;;;9.65;2.13;;;20.60;77.50;;;;;;5078538;28;20046;-90
2023/10/08 12:56:05;;;;;;;7.78;2.05;;;20.60;75.00;;;;;;5078313;28;20047;-90
2023/10/08 12:58:34;;;;;;;8.87;1.90;;;20.60;75.70;;;;;;5084115;27;20027;-90
2023/10/08 13:01:03;;;;;;;9.32;2.03;;;20.80;75.00;;;;;;5106423;27;20314;-90
2023/10/08 13:03:32;;;;;;;8.73;2.72;;;21.00;75.90;;;;;;5105059;27;20410;-90
2023/10/08 13:06:05;;;;;;;9.25;1.90;;;21.40;76.40;;;;;;5089145;27;20110;-90
2023/10/08 13:08:31;;;;;;;10.38;2.83;;;21.70;75.20;;;;;;5087608;27;20077;-90
2023/10/08 13:11:04;;;;;;;11.82;4.32;;;22.00;76.70;;;;;;5086422;28;20063;-90
2023/10/08 13:13:33;;;;;;;8.77;2.10;;;22.50;77.30;;;;;;5095111;28;20085;-90
2023/10/08 13:16:02;;;;;;;9.60;2.08;;;23.30;74.00;;;;;;5085465;28;20517;-90
2023/10/08 13:18:29;;;;;;;17.58;2.63;;;24.40;72.90;;;;;;5077945;28;20039;-90
2023/10/08 13:20:55;;;;;;;9.75;2.10;;;25.50;70.20;;;;;;5095244;28;20113;-90
2023/10/08 13:23:23;;;;;;;7.75;1.80;;;26.50;67.70;;;;;;5103969;28;20091;-90
2023/10/08 13:25:55;;;;;;;9.18;1.63;;;27.00;64.00;;;;;;5102712;28;20482;-91
2023/10/08 13:28:26;;;;;;;8.40;1.90;;;27.00;60.10;;;;;;5101730;28;20043;-91
2023/10/08 13:30:54;;;;;;;10.35;1.85;;;26.40;59.80;;;;;;5078839;28;20162;-91
2023/10/08 13:33:20;;;;;;;7.85;1.70;;;26.10;60.30;;;;;;5089298;28;20060;-91
2023/10/08 13:35:50;;;;;;;9.15;2.00;;;26.50;61.30;;;;;;5094275;28;20060;-91
2023/10/08 13:38:20;;;;;;;7.43;1.60;;;27.20;61.20;;;;;;5086318;28;20035;-91
2023/10/08 13:41:03;;;;;;;7.00;1.58;;;27.60;58.30;;;;;;5078056;28;20504;-91
2023/10/08 13:43:33;;;;;;;8.63;1.65;;;27.70;57.60;;;;;;5077872;28;20039;-90
2023/10/08 13:46:04;;;;;;;7.60;1.88;;;27.20;56.50;;;;;;5086093;28;20501;-90
2023/10/08 13:48:40;;;;;;;7.20;1.83;;;26.30;56.30;;;;;;5102997;28;20059;-90
2023/10/08 13:51:13;;;;;;;7.70;1.95;;;25.50;57.20;;;;;;5103192;28;20066;-90
2023/10/08 13:53:40;;;;;;;6.90;1.60;;;24.90;59.30;;;;;;5081930;28;20042;-90
2023/10/08 13:56:06;;;;;;;8.95;1.90;;;24.30;60.00;;;;;;5077513;28;20039;-89
2023/10/08 13:58:35;;;;;;;6.20;1.63;;;23.70;60.00;;;;;;5095051;28;20031;-90
2023/10/08 14:01:03;;;;;;;10.43;1.95;;;23.30;61.10;;;;;;5076409;28;20119;-90